Nassauborg — PHDU — position and weather

sailwx.info

Track history (hours):
 
Tides and Currents Weather Stations Pressure Air Temp Water Temp Dewpoint Dewpoint Depression Visibility Wind Speed Wind Dir Waves Ship Positions

Nassauborg

Ship's website: http://www.wagenborg.com/index.cfm?pid=37&itemid=158&contentitemid=236

Last reported at 2017-Apr-20 14:48 UTC. Time now 2017-Apr-23 14:01 UTC.
Position N 36°41' E 014°23'.

Length 143 m; beam 22 m.

Type: Ship. MMSI: 246430000.

Date/timePositionNaut miles runAvg speedWind from/ knotsBaromVisibWave heightAir tempDewpointWater temp
2017-Apr-20 14:48N 36°41' E 014°23'911.5
2017-Apr-20 13:59N 36°43' E 014°11'811.5
2017-Apr-20 13:18N 36°44' E 014°01'311.6
2017-Apr-20 13:00N 36°45' E 013°57'1011.9
2017-Apr-20 12:12N 36°47' E 013°46'312.0
2017-Apr-20 11:56N 36°48' E 013°42'  
2017-Apr-17 05:14N 36°00' W 005°08'412.8
2017-Apr-17 04:53N 35°60' W 005°14'513.0
2017-Apr-17 04:30N 35°59' W 005°19'612.7
2017-Apr-17 04:00N 35°57' W 005°27'611.7
2017-Apr-17 03:28N 35°55' W 005°34'16812.5
2017-Apr-16 14:01N 36°31' W 008°58'714.0
2017-Apr-16 13:31N 36°32' W 009°07'714.0
2017-Apr-16 13:01N 36°34' W 009°15'914.4
2017-Apr-16 12:23N 36°41' W 009°23'614.5
2017-Apr-16 12:00N 36°45' W 009°28'814.0
2017-Apr-16 11:25N 36°52' W 009°33'614.4
2017-Apr-16 10:59N 36°58' W 009°35'1614.3
2017-Apr-16 09:49N 37°14' W 009°40'1713.9
2017-Apr-16 08:36N 37°30' W 009°45'112.1
2017-Apr-16 08:30N 37°31' W 009°45'1512.0
2017-Apr-16 07:15N 37°46' W 009°49'511.6
2017-Apr-16 06:48N 37°51' W 009°51'511.6
2017-Apr-16 06:23N 37°56' W 009°52'411.6
2017-Apr-16 06:00N 38°00' W 009°53'611.6
2017-Apr-16 05:28N 38°06' W 009°55'511.6
2017-Apr-16 05:00N 38°12' W 009°57'611.5
2017-Apr-16 04:31N 38°17' W 009°58'611.6
2017-Apr-16 04:00N 38°23' W 010°00'711.6
2017-Apr-16 03:26N 38°29' W 010°02'511.6
2017-Apr-16 03:00N 38°34' W 010°03'611.7
2017-Apr-16 02:30N 38°40' W 010°05'611.8
2017-Apr-16 02:00N 38°46' W 010°06'611.9
2017-Apr-16 01:30N 38°52' W 010°06'712.0
2017-Apr-16 00:56N 38°59' W 010°06'512.2
2017-Apr-16 00:30N 39°04' W 010°06'1012.1
2017-Apr-15 23:42N 39°14' W 010°06'212.3
2017-Apr-15 23:30N 39°16' W 010°06'612.2
2017-Apr-15 22:59N 39°22' W 010°06'  
2017-Apr-13 12:04N 49°45' W 003°30'313.3
2017-Apr-13 11:48N 49°46' W 003°26'412.9
2017-Apr-13 11:30N 49°48' W 003°20'612.7
2017-Apr-13 11:00N 49°51' W 003°12'612.1
2017-Apr-13 10:30N 49°55' W 003°04'611.4
2017-Apr-13 10:00N 49°57' W 002°56'10112.6
2017-Apr-13 01:57N 50°27' W 000°25'613.5
2017-Apr-13 01:31N 50°29' W 000°16'612.9
2017-Apr-13 01:01N 50°31' W 000°07'612.4
2017-Apr-13 00:30N 50°33' E 000°03'611.7
2017-Apr-13 00:00N 50°35' E 000°11'611.1
2017-Apr-12 23:30N 50°36' E 000°20'510.5
2017-Apr-12 22:59N 50°38' E 000°28'710.1
2017-Apr-12 22:16N 50°41' E 000°38'2011.4
2017-Apr-12 20:29N 50°53' E 001°05'613.3
2017-Apr-12 20:00N 50°57' E 001°12'714.3
2017-Apr-12 19:31N 51°01' E 001°21'714.7
2017-Apr-12 19:01N 51°06' E 001°30'714.1
2017-Apr-12 18:31N 51°10' E 001°39'613.0
2017-Apr-12 18:01N 51°15' E 001°46'612.2
2017-Apr-12 17:31N 51°20' E 001°51'611.3
2017-Apr-12 17:00N 51°25' E 001°56'510.8
2017-Apr-12 16:31N 51°29' E 002°01'35411.2
2017-Apr-11 08:52N 56°31' E 007°17'411.5
2017-Apr-11 08:30N 56°35' E 007°21'611.5
2017-Apr-11 07:59N 56°40' E 007°26'611.5
2017-Apr-11 07:30N 56°45' E 007°32'109 8.1
2017-Apr-10 18:06N 57°49' E 010°15'2 7.9
2017-Apr-10 17:49N 57°49' E 010°19'3 8.9
2017-Apr-10 17:27N 57°49' E 010°25'4 9.2
2017-Apr-10 17:00N 57°49' E 010°33'4 8.7
2017-Apr-10 16:30N 57°49' E 010°41'4 8.5
2017-Apr-10 16:00N 57°46' E 010°47'611.2
2017-Apr-10 15:30N 57°41' E 010°42'3 6.8
2017-Apr-10 15:00N 57°41' E 010°36'  
Track history (hours):
 
Tides and Currents Weather Stations Pressure Air Temp Water Temp Dewpoint Dewpoint Depression Visibility Wind Speed Wind Dir Waves Ship Positions

Nassauborg

Ship's website: http://www.wagenborg.com/index.cfm?pid=37&itemid=158&contentitemid=236

Last reported at 2017-Apr-20 14:48 UTC. Time now 2017-Apr-23 14:01 UTC.
Position N 36°41' E 014°23'.

Length 143 m; beam 22 m.

Type: Ship. MMSI: 246430000.

Date/timePositionNaut miles runAvg speedWind from/ knotsBaromVisibWave heightAir tempDewpointWater temp
2017-Apr-20 14:48N 36°41' E 014°23'911.5
2017-Apr-20 13:59N 36°43' E 014°11'811.5
2017-Apr-20 13:18N 36°44' E 014°01'311.6
2017-Apr-20 13:00N 36°45' E 013°57'1011.9
2017-Apr-20 12:12N 36°47' E 013°46'312.0
2017-Apr-20 11:56N 36°48' E 013°42'  
2017-Apr-17 05:14N 36°00' W 005°08'412.8
2017-Apr-17 04:53N 35°60' W 005°14'513.0
2017-Apr-17 04:30N 35°59' W 005°19'612.7
2017-Apr-17 04:00N 35°57' W 005°27'611.7
2017-Apr-17 03:28N 35°55' W 005°34'16812.5
2017-Apr-16 14:01N 36°31' W 008°58'714.0
2017-Apr-16 13:31N 36°32' W 009°07'714.0
2017-Apr-16 13:01N 36°34' W 009°15'914.4
2017-Apr-16 12:23N 36°41' W 009°23'614.5
2017-Apr-16 12:00N 36°45' W 009°28'814.0
2017-Apr-16 11:25N 36°52' W 009°33'614.4
2017-Apr-16 10:59N 36°58' W 009°35'1614.3
2017-Apr-16 09:49N 37°14' W 009°40'1713.9
2017-Apr-16 08:36N 37°30' W 009°45'112.1
2017-Apr-16 08:30N 37°31' W 009°45'1512.0
2017-Apr-16 07:15N 37°46' W 009°49'511.6
2017-Apr-16 06:48N 37°51' W 009°51'511.6
2017-Apr-16 06:23N 37°56' W 009°52'411.6
2017-Apr-16 06:00N 38°00' W 009°53'611.6
2017-Apr-16 05:28N 38°06' W 009°55'511.6
2017-Apr-16 05:00N 38°12' W 009°57'611.5
2017-Apr-16 04:31N 38°17' W 009°58'611.6
2017-Apr-16 04:00N 38°23' W 010°00'711.6
2017-Apr-16 03:26N 38°29' W 010°02'511.6
2017-Apr-16 03:00N 38°34' W 010°03'611.7
2017-Apr-16 02:30N 38°40' W 010°05'611.8
2017-Apr-16 02:00N 38°46' W 010°06'611.9
2017-Apr-16 01:30N 38°52' W 010°06'712.0
2017-Apr-16 00:56N 38°59' W 010°06'512.2
2017-Apr-16 00:30N 39°04' W 010°06'1012.1
2017-Apr-15 23:42N 39°14' W 010°06'212.3
2017-Apr-15 23:30N 39°16' W 010°06'612.2
2017-Apr-15 22:59N 39°22' W 010°06'  
2017-Apr-13 12:04N 49°45' W 003°30'313.3
2017-Apr-13 11:48N 49°46' W 003°26'412.9
2017-Apr-13 11:30N 49°48' W 003°20'612.7
2017-Apr-13 11:00N 49°51' W 003°12'612.1
2017-Apr-13 10:30N 49°55' W 003°04'611.4
2017-Apr-13 10:00N 49°57' W 002°56'10112.6
2017-Apr-13 01:57N 50°27' W 000°25'613.5
2017-Apr-13 01:31N 50°29' W 000°16'612.9
2017-Apr-13 01:01N 50°31' W 000°07'612.4
2017-Apr-13 00:30N 50°33' E 000°03'611.7
2017-Apr-13 00:00N 50°35' E 000°11'611.1
2017-Apr-12 23:30N 50°36' E 000°20'510.5
2017-Apr-12 22:59N 50°38' E 000°28'710.1
2017-Apr-12 22:16N 50°41' E 000°38'2011.4
2017-Apr-12 20:29N 50°53' E 001°05'613.3
2017-Apr-12 20:00N 50°57' E 001°12'714.3
2017-Apr-12 19:31N 51°01' E 001°21'714.7
2017-Apr-12 19:01N 51°06' E 001°30'714.1
2017-Apr-12 18:31N 51°10' E 001°39'613.0
2017-Apr-12 18:01N 51°15' E 001°46'612.2
2017-Apr-12 17:31N 51°20' E 001°51'611.3
2017-Apr-12 17:00N 51°25' E 001°56'510.8
2017-Apr-12 16:31N 51°29' E 002°01'35411.2
2017-Apr-11 08:52N 56°31' E 007°17'411.5
2017-Apr-11 08:30N 56°35' E 007°21'611.5
2017-Apr-11 07:59N 56°40' E 007°26'611.5
2017-Apr-11 07:30N 56°45' E 007°32'109 8.1
2017-Apr-10 18:06N 57°49' E 010°15'2 7.9
2017-Apr-10 17:49N 57°49' E 010°19'3 8.9
2017-Apr-10 17:27N 57°49' E 010°25'4 9.2
2017-Apr-10 17:00N 57°49' E 010°33'4 8.7
2017-Apr-10 16:30N 57°49' E 010°41'4 8.5
2017-Apr-10 16:00N 57°46' E 010°47'611.2
2017-Apr-10 15:30N 57°41' E 010°42'3 6.8
2017-Apr-10 15:00N 57°41' E 010°36'  

Dump ship's entire track history